createdAt,value
2023-01-13T00:00:17.050Z,5.64
2023-01-13T00:03:09.893Z,5.64
2023-01-13T00:05:43.227Z,5.65
2023-01-13T00:08:16.377Z,5.64
2023-01-13T00:10:51.480Z,5.65
2023-01-13T00:13:28.812Z,5.64
2023-01-13T00:16:03.963Z,5.64
2023-01-13T00:18:39.955Z,5.63
2023-01-13T00:21:16.630Z,5.63
2023-01-13T00:23:49.773Z,5.61
2023-01-13T00:26:26.829Z,5.60
2023-01-13T00:29:07.056Z,5.59
2023-01-13T00:31:39.717Z,5.57
2023-01-13T00:34:12.379Z,5.55
2023-01-13T00:36:45.412Z,5.55
2023-01-13T00:39:17.950Z,5.54
2023-01-13T00:42:08.736Z,5.53
2023-01-13T00:44:41.365Z,5.52
2023-01-13T00:47:14.510Z,5.51
2023-01-13T00:49:47.102Z,5.51
2023-01-13T00:52:19.994Z,5.49
2023-01-13T00:54:53.099Z,5.47
2023-01-13T00:57:31.952Z,5.46
2023-01-13T01:00:05.534Z,5.47
2023-01-13T01:02:38.267Z,5.47
2023-01-13T01:05:12.662Z,5.47
2023-01-13T01:07:45.802Z,5.46
2023-01-13T01:10:20.248Z,5.46
2023-01-13T01:12:53.444Z,5.47
2023-01-13T01:15:28.946Z,5.46
2023-01-13T01:18:04.460Z,5.46
2023-01-13T01:20:38.249Z,5.46
2023-01-13T01:23:11.529Z,5.46
2023-01-13T01:25:44.187Z,5.46
2023-01-13T01:28:19.005Z,5.46
2023-01-13T01:30:52.005Z,5.47
2023-01-13T01:33:26.292Z,5.46
2023-01-13T01:36:00.736Z,5.46
2023-01-13T01:38:35.979Z,5.44
2023-01-13T01:41:09.515Z,5.43
2023-01-13T01:44:04.591Z,5.43
2023-01-13T01:46:40.700Z,5.41
2023-01-13T01:49:17.746Z,5.41
2023-01-13T01:51:55.180Z,5.41
2023-01-13T01:54:40.220Z,5.40
2023-01-13T01:57:17.170Z,5.39
2023-01-13T01:59:50.760Z,5.39
2023-01-13T02:02:24.291Z,5.40
2023-01-13T02:05:01.360Z,5.41
2023-01-13T02:07:38.687Z,5.41
2023-01-13T02:10:14.608Z,5.41
2023-01-13T02:12:49.628Z,5.40
2023-01-13T02:15:26.070Z,5.40
2023-01-13T02:18:29.330Z,5.39
2023-01-13T02:21:41.612Z,5.38
2023-01-13T02:25:00.783Z,5.39
2023-01-13T02:28:15.045Z,5.38
2023-01-13T02:31:10.978Z,5.37
2023-01-13T02:34:02.901Z,5.37
2023-01-13T02:36:48.342Z,5.36
2023-01-13T02:39:34.569Z,5.36
2023-01-13T02:42:31.756Z,5.36
2023-01-13T02:45:14.647Z,5.34
2023-01-13T02:47:50.940Z,5.36
2023-01-13T02:50:28.942Z,5.37
2023-01-13T02:53:10.418Z,5.34
2023-01-13T02:55:48.626Z,5.33
2023-01-13T02:58:26.805Z,5.33
2023-01-13T03:01:02.742Z,5.33
2023-01-13T03:03:42.356Z,5.32
2023-01-13T03:06:40.808Z,5.32
2023-01-13T03:09:21.017Z,5.33
2023-01-13T03:12:05.639Z,5.34
2023-01-13T03:14:43.422Z,5.35
2023-01-13T03:17:33.822Z,5.36
2023-01-13T03:20:13.804Z,5.36
2023-01-13T03:23:00.091Z,5.37
2023-01-13T03:25:42.575Z,5.36
2023-01-13T03:28:23.672Z,5.38
2023-01-13T03:31:07.861Z,5.38
2023-01-13T03:33:47.938Z,5.40
2023-01-13T03:36:25.967Z,5.41
2023-01-13T03:39:04.992Z,5.43
2023-01-13T03:41:44.620Z,5.43
2023-01-13T03:44:27.645Z,5.44
2023-01-13T03:47:12.512Z,5.45
2023-01-13T03:49:53.760Z,5.45
2023-01-13T03:52:33.401Z,5.44
2023-01-13T03:55:13.558Z,5.43
2023-01-13T03:57:52.436Z,5.42
2023-01-13T04:00:28.478Z,5.43
2023-01-13T04:03:08.371Z,5.44
2023-01-13T04:05:45.847Z,5.44
2023-01-13T04:08:23.531Z,5.45
2023-01-13T04:11:04.796Z,5.44
2023-01-13T04:13:41.681Z,5.44
2023-01-13T04:16:15.637Z,5.44
2023-01-13T04:18:51.721Z,5.44
2023-01-13T04:21:24.477Z,5.42
2023-01-13T04:23:58.922Z,5.41
2023-01-13T04:26:32.292Z,5.41
2023-01-13T04:29:07.970Z,5.41
2023-01-13T04:31:41.096Z,5.40
2023-01-13T04:34:15.091Z,5.41
2023-01-13T04:36:47.883Z,5.41
2023-01-13T04:39:20.867Z,5.41
2023-01-13T04:41:59.668Z,5.40
2023-01-13T04:44:36.911Z,5.39
2023-01-13T04:47:23.480Z,5.37
2023-01-13T04:50:20.353Z,5.37
2023-01-13T04:52:54.135Z,5.37
2023-01-13T04:55:27.597Z,5.37
2023-01-13T04:58:10.226Z,5.37
2023-01-13T05:00:44.360Z,5.37
2023-01-13T05:03:17.404Z,5.37
2023-01-13T05:05:54.098Z,5.38
2023-01-13T05:08:27.621Z,5.36
2023-01-13T05:11:31.472Z,5.33
2023-01-13T05:14:30.935Z,5.32
2023-01-13T05:17:05.937Z,5.31
2023-01-13T05:19:44.790Z,5.31
2023-01-13T05:22:38.705Z,5.30
2023-01-13T05:25:26.214Z,5.28
2023-01-13T05:28:01.966Z,5.27
2023-01-13T05:30:43.872Z,5.26
2023-01-13T05:33:18.540Z,5.24
2023-01-13T05:35:51.893Z,5.23
2023-01-13T05:38:26.517Z,5.21
2023-01-13T05:41:19.909Z,5.18
2023-01-13T05:43:55.109Z,5.18
2023-01-13T05:46:46.055Z,5.17
2023-01-13T05:49:18.999Z,5.16
2023-01-13T05:51:52.029Z,5.14
2023-01-13T05:54:24.850Z,5.14
2023-01-13T05:56:58.377Z,5.13
2023-01-13T05:59:30.367Z,5.10
2023-01-13T06:02:03.707Z,5.08
2023-01-13T06:04:51.592Z,5.07
2023-01-13T06:07:24.830Z,5.08
2023-01-13T06:10:03.324Z,5.08
2023-01-13T06:12:43.462Z,5.09
2023-01-13T06:15:17.355Z,5.10
2023-01-13T06:17:54.919Z,5.10
2023-01-13T06:20:31.837Z,5.09
2023-01-13T06:23:05.975Z,5.10
2023-01-13T06:25:48.555Z,5.10
2023-01-13T06:28:23.732Z,5.10
2023-01-13T06:31:01.607Z,5.10
2023-01-13T06:33:39.961Z,5.09
2023-01-13T06:36:19.676Z,5.10
2023-01-13T06:38:58.837Z,5.09
2023-01-13T06:41:50.965Z,5.10
2023-01-13T06:44:28.835Z,5.10
2023-01-13T06:47:02.573Z,5.12
2023-01-13T06:49:40.470Z,5.14
2023-01-13T06:52:13.314Z,5.15
2023-01-13T06:54:46.468Z,5.17
2023-01-13T06:57:19.126Z,5.19
2023-01-13T06:59:53.389Z,5.19
2023-01-13T07:02:30.790Z,5.22
2023-01-13T07:05:04.395Z,5.24
2023-01-13T07:07:37.274Z,5.27
2023-01-13T07:10:13.584Z,5.30
2023-01-13T07:13:03.802Z,5.30
2023-01-13T07:15:42.196Z,5.33
2023-01-13T07:18:19.905Z,5.33
2023-01-13T07:20:59.996Z,5.36
2023-01-13T07:23:36.552Z,5.37
2023-01-13T07:26:15.509Z,5.37
2023-01-13T07:28:51.696Z,5.40
2023-01-13T07:31:26.239Z,5.39
2023-01-13T07:34:07.014Z,5.40
2023-01-13T07:36:43.613Z,5.41
2023-01-13T07:39:16.529Z,5.43
2023-01-13T07:42:07.115Z,5.44
2023-01-13T07:44:39.991Z,5.45
2023-01-13T07:47:13.363Z,5.47
2023-01-13T07:49:49.272Z,5.48
2023-01-13T07:52:22.430Z,5.49
2023-01-13T07:54:55.049Z,5.51
2023-01-13T07:57:30.520Z,5.53
2023-01-13T08:00:03.989Z,5.55
2023-01-13T08:02:36.414Z,5.56
2023-01-13T08:05:10.739Z,5.59
2023-01-13T08:07:41.869Z,5.61
2023-01-13T08:10:16.129Z,5.63
2023-01-13T08:13:07.384Z,5.65
2023-01-13T08:15:40.154Z,5.69
2023-01-13T08:18:13.053Z,5.71
2023-01-13T08:20:46.086Z,5.75
2023-01-13T08:23:19.401Z,5.79
2023-01-13T08:25:52.685Z,5.83
2023-01-13T08:28:25.612Z,5.85
2023-01-13T08:31:03.150Z,5.88
2023-01-13T08:33:37.377Z,5.91
2023-01-13T08:36:13.058Z,5.94
2023-01-13T08:38:46.150Z,5.99
2023-01-13T08:41:40.443Z,6.01
2023-01-13T08:44:13.912Z,6.07
2023-01-13T08:46:47.746Z,6.10
2023-01-13T08:49:21.557Z,6.14
2023-01-13T08:51:54.873Z,6.16
2023-01-13T08:54:29.517Z,6.20
2023-01-13T08:57:04.875Z,6.22
2023-01-13T08:59:38.155Z,6.23
2023-01-13T09:02:20.815Z,6.25
2023-01-13T09:05:04.022Z,6.27
2023-01-13T09:07:38.678Z,6.26
2023-01-13T09:10:15.741Z,6.27
2023-01-13T09:13:10.829Z,6.27
2023-01-13T09:15:58.201Z,6.25
2023-01-13T09:18:32.797Z,6.27
2023-01-13T09:21:10.916Z,6.27
2023-01-13T09:23:43.532Z,6.28
2023-01-13T09:26:21.924Z,6.29
2023-01-13T09:29:04.227Z,6.30
2023-01-13T09:31:48.149Z,6.34
2023-01-13T09:34:40.129Z,6.37
2023-01-13T09:37:20.115Z,6.43
2023-01-13T09:39:58.603Z,6.46
2023-01-13T09:43:06.455Z,6.49
2023-01-13T09:45:45.720Z,6.53
2023-01-13T09:48:30.290Z,6.56
2023-01-13T09:51:17.139Z,6.60
2023-01-13T09:53:57.316Z,6.63
2023-01-13T09:56:30.750Z,6.68
2023-01-13T09:59:16.227Z,6.71
2023-01-13T10:02:01.755Z,6.73
2023-01-13T10:04:34.728Z,6.75
2023-01-13T10:07:14.591Z,6.79
2023-01-13T10:09:53.379Z,6.81
2023-01-13T10:12:51.186Z,6.85
2023-01-13T10:15:28.062Z,6.90
2023-01-13T10:18:08.530Z,6.94
2023-01-13T10:20:54.109Z,6.99
2023-01-13T10:23:44.867Z,7.03
2023-01-13T10:26:44.748Z,7.08
2023-01-13T10:29:29.109Z,7.14
2023-01-13T10:32:10.747Z,7.20
2023-01-13T10:34:58.539Z,7.21
2023-01-13T10:37:36.280Z,7.24
2023-01-13T10:40:20.870Z,7.27
2023-01-13T10:43:11.271Z,7.30
2023-01-13T10:46:02.790Z,7.32
2023-01-13T10:48:45.815Z,7.36
2023-01-13T10:51:33.129Z,7.40
2023-01-13T10:54:22.609Z,7.45
2023-01-13T10:57:16.796Z,7.47
2023-01-13T10:59:51.341Z,7.49
2023-01-13T11:02:32.115Z,7.51
2023-01-13T11:05:23.205Z,7.54
2023-01-13T11:07:58.781Z,7.58
2023-01-13T11:10:33.625Z,7.61
2023-01-13T11:13:14.346Z,7.66
2023-01-13T11:15:56.452Z,7.71
2023-01-13T11:18:43.982Z,7.74
2023-01-13T11:21:24.321Z,7.78
2023-01-13T11:24:11.745Z,7.83
2023-01-13T11:26:54.332Z,7.86
2023-01-13T11:29:35.946Z,7.90
2023-01-13T11:32:23.540Z,7.94
2023-01-13T11:35:02.708Z,8.01
2023-01-13T11:37:43.379Z,8.06
2023-01-13T11:40:23.936Z,8.08
2023-01-13T11:43:01.557Z,8.09
2023-01-13T11:45:45.716Z,8.08
2023-01-13T11:48:22.516Z,8.08
2023-01-13T11:51:05.406Z,8.07
2023-01-13T11:53:52.930Z,8.07
2023-01-13T11:56:46.236Z,8.06
2023-01-13T11:59:47.225Z,8.06
2023-01-13T12:02:39.467Z,8.08
2023-01-13T12:05:24.136Z,8.07
2023-01-13T12:08:00.787Z,8.05
2023-01-13T12:10:46.069Z,8.01
2023-01-13T12:13:32.712Z,7.98
2023-01-13T12:16:16.485Z,7.97
2023-01-13T12:19:13.919Z,7.96
2023-01-13T12:21:59.902Z,7.95
2023-01-13T12:24:40.140Z,7.95
2023-01-13T12:27:19.491Z,7.93
2023-01-13T12:30:00.248Z,7.94
2023-01-13T12:32:39.499Z,7.94
2023-01-13T12:35:30.506Z,7.95
2023-01-13T12:38:09.070Z,7.96
2023-01-13T12:40:53.157Z,7.99
2023-01-13T12:43:51.315Z,8.04
2023-01-13T12:46:57.200Z,8.11
2023-01-13T12:49:32.927Z,8.17
2023-01-13T12:52:20.320Z,8.18
2023-01-13T12:55:23.380Z,8.19
2023-01-13T12:58:16.160Z,8.20
2023-01-13T13:01:15.915Z,8.19
2023-01-13T13:04:11.132Z,8.19
2023-01-13T13:06:51.115Z,8.19
2023-01-13T13:09:33.055Z,8.17
2023-01-13T13:13:09.887Z,8.16
2023-01-13T13:15:42.852Z,8.17
2023-01-13T13:18:30.536Z,8.16
2023-01-13T13:21:10.074Z,8.16
2023-01-13T13:23:55.021Z,8.15
2023-01-13T13:26:48.502Z,8.15
2023-01-13T13:29:41.444Z,8.14
2023-01-13T13:32:55.150Z,8.13
2023-01-13T13:35:52.138Z,8.13
2023-01-13T13:39:09.130Z,8.13
2023-01-13T13:42:11.145Z,8.13
2023-01-13T13:45:07.089Z,8.12
2023-01-13T13:47:40.654Z,8.10
2023-01-13T13:50:19.110Z,8.11
2023-01-13T13:53:04.336Z,8.11
2023-01-13T13:55:39.264Z,8.11
2023-01-13T13:58:26.466Z,8.09
2023-01-13T14:01:02.469Z,8.09
2023-01-13T14:03:39.982Z,8.10
2023-01-13T14:06:25.358Z,8.09
2023-01-13T14:09:00.084Z,8.09
2023-01-13T14:11:39.207Z,8.07
2023-01-13T14:14:21.313Z,8.08
2023-01-13T14:16:58.600Z,8.07
2023-01-13T14:19:36.837Z,8.05
2023-01-13T14:22:17.768Z,8.04
2023-01-13T14:25:02.107Z,8.04
2023-01-13T14:27:46.293Z,8.04
2023-01-13T14:30:19.467Z,8.02
2023-01-13T14:32:53.052Z,8.00
2023-01-13T14:35:25.561Z,7.99
2023-01-13T14:38:05.807Z,7.99
2023-01-13T14:40:48.161Z,7.98
2023-01-13T14:43:24.668Z,7.97
2023-01-13T14:46:06.551Z,7.97
2023-01-13T14:48:43.821Z,7.96
2023-01-13T14:51:25.143Z,7.96
2023-01-13T14:54:00.734Z,7.95
2023-01-13T14:56:51.529Z,7.94
2023-01-13T14:59:48.397Z,7.93
2023-01-13T15:02:46.250Z,7.93
2023-01-13T15:05:49.770Z,7.92
2023-01-13T15:08:37.434Z,7.92
2023-01-13T15:11:20.961Z,7.92
2023-01-13T15:14:10.907Z,7.92
2023-01-13T15:16:46.855Z,7.91
2023-01-13T15:19:19.470Z,7.91
2023-01-13T15:21:52.081Z,7.91
2023-01-13T15:24:24.536Z,7.90
2023-01-13T15:27:00.272Z,7.91
2023-01-13T15:29:33.219Z,7.91
2023-01-13T15:32:06.346Z,7.91
2023-01-13T15:34:39.495Z,7.90
2023-01-13T15:37:13.625Z,7.89
2023-01-13T15:39:49.275Z,7.88
2023-01-13T15:42:39.522Z,7.90
2023-01-13T15:45:33.404Z,7.89
2023-01-13T15:48:07.637Z,7.87
2023-01-13T15:50:38.457Z,7.87
2023-01-13T15:53:15.936Z,7.86
2023-01-13T15:55:52.239Z,7.86
2023-01-13T15:58:29.857Z,7.84
2023-01-13T16:01:03.152Z,7.85
2023-01-13T16:03:36.554Z,7.85
2023-01-13T16:06:18.729Z,7.84
2023-01-13T16:08:51.577Z,7.84
2023-01-13T16:11:24.338Z,7.84
2023-01-13T16:14:00.573Z,7.84
2023-01-13T16:16:41.773Z,7.83
2023-01-13T16:19:16.859Z,7.83
2023-01-13T16:21:49.619Z,7.84
2023-01-13T16:24:22.636Z,7.85
2023-01-13T16:26:55.388Z,7.86
2023-01-13T16:29:29.284Z,7.86
2023-01-13T16:32:02.531Z,7.85
2023-01-13T16:34:36.154Z,7.85
2023-01-13T16:37:13.236Z,7.86
2023-01-13T16:39:46.968Z,7.86
2023-01-13T16:42:19.757Z,7.86
2023-01-13T16:44:53.618Z,7.88
2023-01-13T16:47:30.527Z,7.91
2023-01-13T16:50:03.812Z,7.93
2023-01-13T16:52:36.647Z,7.95
2023-01-13T16:55:10.958Z,7.96
2023-01-13T16:57:43.809Z,7.97
2023-01-13T17:00:19.066Z,7.98
2023-01-13T17:02:52.315Z,8.01
2023-01-13T17:05:25.978Z,8.01
2023-01-13T17:07:59.071Z,8.03
2023-01-13T17:10:31.876Z,8.05
2023-01-13T17:13:15.530Z,8.07
2023-01-13T17:15:49.366Z,8.07
2023-01-13T17:18:22.339Z,8.08
2023-01-13T17:20:55.427Z,8.07
2023-01-13T17:23:32.127Z,8.07
2023-01-13T17:26:05.152Z,8.09
2023-01-13T17:28:38.307Z,8.10
2023-01-13T17:31:11.218Z,8.12
2023-01-13T17:33:43.880Z,8.12
2023-01-13T17:36:17.135Z,8.12
2023-01-13T17:38:50.457Z,8.12
2023-01-13T17:41:23.689Z,8.12
2023-01-13T17:44:03.765Z,8.12
2023-01-13T17:46:45.455Z,8.10
2023-01-13T17:49:22.429Z,8.10
2023-01-13T17:51:58.958Z,8.07
2023-01-13T17:54:31.532Z,8.06
2023-01-13T17:57:05.593Z,8.06
2023-01-13T17:59:39.161Z,8.04
2023-01-13T18:02:14.364Z,8.04
2023-01-13T18:04:52.118Z,8.02
2023-01-13T18:07:29.663Z,8.02
2023-01-13T18:10:04.162Z,8.01
2023-01-13T18:12:37.377Z,8.01
2023-01-13T18:15:11.221Z,8.00
2023-01-13T18:17:47.259Z,7.99
2023-01-13T18:20:38.954Z,7.98
2023-01-13T18:23:37.351Z,7.97
2023-01-13T18:26:39.515Z,7.96
2023-01-13T18:29:12.826Z,7.95
2023-01-13T18:31:49.289Z,7.95
2023-01-13T18:34:22.328Z,7.94
2023-01-13T18:36:55.479Z,7.95
2023-01-13T18:39:29.984Z,7.95
2023-01-13T18:42:20.915Z,7.94
2023-01-13T18:44:59.621Z,7.93
2023-01-13T18:47:39.478Z,7.92
2023-01-13T18:50:14.305Z,7.91
2023-01-13T18:52:48.535Z,7.91
2023-01-13T18:55:23.559Z,7.91
2023-01-13T18:58:02.842Z,7.89
2023-01-13T19:00:37.984Z,7.89
2023-01-13T19:03:13.565Z,7.87
2023-01-13T19:05:46.992Z,7.86
2023-01-13T19:08:20.239Z,7.84
2023-01-13T19:10:53.763Z,7.82
2023-01-13T19:13:26.540Z,7.81
2023-01-13T19:16:07.523Z,7.80
2023-01-13T19:18:41.669Z,7.79
2023-01-13T19:21:15.060Z,7.78
2023-01-13T19:23:48.223Z,7.77
2023-01-13T19:26:21.377Z,7.77
2023-01-13T19:29:01.735Z,7.76
2023-01-13T19:31:53.203Z,7.75
2023-01-13T19:34:30.528Z,7.75
2023-01-13T19:37:06.804Z,7.74
2023-01-13T19:39:39.950Z,7.73
2023-01-13T19:42:33.350Z,7.73
2023-01-13T19:45:31.169Z,7.72
2023-01-13T19:48:10.957Z,7.71
2023-01-13T19:50:56.060Z,7.71
2023-01-13T19:53:32.298Z,7.72
2023-01-13T19:56:05.623Z,7.72
2023-01-13T19:58:38.565Z,7.72
2023-01-13T20:01:17.962Z,7.72
2023-01-13T20:03:54.389Z,7.71
2023-01-13T20:06:38.341Z,7.71
2023-01-13T20:09:18.956Z,7.72
2023-01-13T20:12:00.353Z,7.71
2023-01-13T20:14:40.890Z,7.70
2023-01-13T20:17:18.624Z,7.71
2023-01-13T20:20:02.240Z,7.71
2023-01-13T20:22:39.920Z,7.71
2023-01-13T20:25:22.636Z,7.72
2023-01-13T20:28:02.799Z,7.72
2023-01-13T20:30:39.514Z,7.71
2023-01-13T20:33:12.756Z,7.71
2023-01-13T20:35:47.330Z,7.70
2023-01-13T20:38:25.076Z,7.71
2023-01-13T20:41:27.986Z,7.71
2023-01-13T20:44:11.944Z,7.70
2023-01-13T20:46:47.158Z,7.70
2023-01-13T20:49:22.973Z,7.70
2023-01-13T20:52:05.104Z,7.70
2023-01-13T20:54:41.328Z,7.69
2023-01-13T20:57:17.113Z,7.68
2023-01-13T20:59:50.525Z,7.66
2023-01-13T21:02:26.722Z,7.65
2023-01-13T21:05:05.768Z,7.63
2023-01-13T21:07:40.971Z,7.61
2023-01-13T21:10:14.665Z,7.60
2023-01-13T21:13:06.620Z,7.58
2023-01-13T21:15:39.692Z,7.56
2023-01-13T21:18:30.353Z,7.53
2023-01-13T21:21:15.740Z,7.51
2023-01-13T21:23:53.477Z,7.49
2023-01-13T21:26:26.312Z,7.46
2023-01-13T21:29:09.691Z,7.43
2023-01-13T21:31:51.747Z,7.40
2023-01-13T21:34:24.986Z,7.38
2023-01-13T21:36:59.834Z,7.36
2023-01-13T21:39:42.633Z,7.34
2023-01-13T21:42:38.176Z,7.31
2023-01-13T21:45:34.270Z,7.28
2023-01-13T21:48:12.702Z,7.24
2023-01-13T21:50:46.278Z,7.21
2023-01-13T21:53:19.261Z,7.21
2023-01-13T21:55:54.827Z,7.18
2023-01-13T21:58:28.433Z,7.16
2023-01-13T22:01:08.805Z,7.15
2023-01-13T22:04:02.331Z,7.13
2023-01-13T22:06:43.655Z,7.10
2023-01-13T22:09:16.408Z,7.08
2023-01-13T22:11:49.621Z,7.05
2023-01-13T22:14:24.086Z,7.00
2023-01-13T22:17:01.867Z,6.97
2023-01-13T22:19:39.374Z,6.92
2023-01-13T22:22:14.706Z,6.88
2023-01-13T22:24:49.898Z,6.84
2023-01-13T22:27:26.360Z,6.82
2023-01-13T22:30:00.329Z,6.77
2023-01-13T22:32:40.487Z,6.74
2023-01-13T22:35:17.642Z,6.69
2023-01-13T22:37:52.018Z,6.65
2023-01-13T22:40:25.162Z,6.63
2023-01-13T22:42:59.188Z,6.59
2023-01-13T22:45:30.234Z,6.54
2023-01-13T22:48:11.261Z,6.49
2023-01-13T22:50:45.797Z,6.45
2023-01-13T22:53:18.682Z,6.41
2023-01-13T22:55:59.396Z,6.36
2023-01-13T22:58:34.036Z,6.33
2023-01-13T23:01:15.034Z,6.29
2023-01-13T23:03:55.043Z,6.26
2023-01-13T23:06:31.409Z,6.23
2023-01-13T23:09:10.377Z,6.20
2023-01-13T23:11:44.169Z,6.16
2023-01-13T23:14:17.667Z,6.14
2023-01-13T23:16:50.487Z,6.11
2023-01-13T23:19:25.620Z,6.09
2023-01-13T23:22:00.574Z,6.06
2023-01-13T23:24:33.397Z,6.04
2023-01-13T23:27:06.692Z,6.01
2023-01-13T23:29:39.978Z,6.00
2023-01-13T23:32:15.409Z,5.97
2023-01-13T23:34:48.616Z,5.94
2023-01-13T23:37:21.788Z,5.91
2023-01-13T23:39:55.390Z,5.88
2023-01-13T23:42:35.455Z,5.87
2023-01-13T23:45:13.900Z,5.85
2023-01-13T23:47:47.157Z,5.84
2023-01-13T23:50:23.702Z,5.83
2023-01-13T23:52:57.516Z,5.81
2023-01-13T23:55:31.015Z,5.79
2023-01-13T23:58:03.639Z,5.77
